sensor_id;sensor_type;location;lat;lon;timestamp;P1;durP1;ratioP1;P2;durP2;ratioP2
33403;SDS011;19751;40.274;18.268;2022-07-06T00:00:41;7.95;;;6.05;;
33403;SDS011;19751;40.274;18.268;2022-07-06T00:05:44;5.65;;;4.43;;
33403;SDS011;19751;40.274;18.268;2022-07-06T00:10:40;7.30;;;4.50;;
33403;SDS011;19751;40.274;18.268;2022-07-06T00:13:07;6.85;;;5.35;;
33403;SDS011;19751;40.274;18.268;2022-07-06T00:15:33;5.20;;;3.33;;
33403;SDS011;19751;40.274;18.268;2022-07-06T00:17:59;4.35;;;3.95;;
33403;SDS011;19751;40.274;18.268;2022-07-06T00:20:24;3.83;;;3.42;;
33403;SDS011;19751;40.274;18.268;2022-07-06T00:22:50;4.53;;;3.85;;
33403;SDS011;19751;40.274;18.268;2022-07-06T00:25:16;5.15;;;4.38;;
33403;SDS011;19751;40.274;18.268;2022-07-06T00:27:41;4.97;;;3.85;;
33403;SDS011;19751;40.274;18.268;2022-07-06T00:30:07;5.32;;;3.85;;
33403;SDS011;19751;40.274;18.268;2022-07-06T00:32:34;5.57;;;4.22;;
33403;SDS011;19751;40.274;18.268;2022-07-06T00:35:00;4.47;;;3.80;;
33403;SDS011;19751;40.274;18.268;2022-07-06T00:37:25;6.78;;;3.63;;
33403;SDS011;19751;40.274;18.268;2022-07-06T00:39:51;6.78;;;4.28;;
33403;SDS011;19751;40.274;18.268;2022-07-06T00:42:19;5.22;;;3.60;;
33403;SDS011;19751;40.274;18.268;2022-07-06T00:44:44;4.57;;;3.80;;
33403;SDS011;19751;40.274;18.268;2022-07-06T00:47:11;5.25;;;3.80;;
33403;SDS011;19751;40.274;18.268;2022-07-06T00:49:37;4.65;;;3.90;;
33403;SDS011;19751;40.274;18.268;2022-07-06T00:52:21;4.63;;;3.80;;
33403;SDS011;19751;40.274;18.268;2022-07-06T00:54:47;4.55;;;3.13;;
33403;SDS011;19751;40.274;18.268;2022-07-06T00:57:13;4.15;;;3.75;;
33403;SDS011;19751;40.274;18.268;2022-07-06T00:59:39;4.30;;;3.90;;
33403;SDS011;19751;40.274;18.268;2022-07-06T01:02:05;6.35;;;4.60;;
33403;SDS011;19751;40.274;18.268;2022-07-06T01:04:30;5.70;;;4.00;;
33403;SDS011;19751;40.274;18.268;2022-07-06T01:06:56;5.95;;;4.63;;
33403;SDS011;19751;40.274;18.268;2022-07-06T01:09:22;5.18;;;4.18;;
33403;SDS011;19751;40.274;18.268;2022-07-06T01:11:49;7.47;;;3.90;;
33403;SDS011;19751;40.274;18.268;2022-07-06T01:14:17;6.85;;;4.35;;
33403;SDS011;19751;40.274;18.268;2022-07-06T01:16:43;6.90;;;4.18;;
33403;SDS011;19751;40.274;18.268;2022-07-06T01:19:10;4.53;;;4.05;;
33403;SDS011;19751;40.274;18.268;2022-07-06T01:21:37;7.20;;;3.90;;
33403;SDS011;19751;40.274;18.268;2022-07-06T01:24:03;5.47;;;3.20;;
33403;SDS011;19751;40.274;18.268;2022-07-06T01:26:29;6.35;;;4.80;;
33403;SDS011;19751;40.274;18.268;2022-07-06T01:28:55;8.63;;;4.47;;
33403;SDS011;19751;40.274;18.268;2022-07-06T01:31:22;8.88;;;3.95;;
33403;SDS011;19751;40.274;18.268;2022-07-06T01:33:49;5.18;;;4.20;;
33403;SDS011;19751;40.274;18.268;2022-07-06T01:36:17;9.48;;;4.20;;
33403;SDS011;19751;40.274;18.268;2022-07-06T01:38:50;6.00;;;3.78;;
33403;SDS011;19751;40.274;18.268;2022-07-06T01:41:20;8.73;;;4.75;;
33403;SDS011;19751;40.274;18.268;2022-07-06T01:43:48;5.32;;;3.83;;
33403;SDS011;19751;40.274;18.268;2022-07-06T01:46:14;9.82;;;4.65;;
33403;SDS011;19751;40.274;18.268;2022-07-06T01:48:41;5.13;;;4.18;;
33403;SDS011;19751;40.274;18.268;2022-07-06T01:51:07;4.93;;;4.07;;
33403;SDS011;19751;40.274;18.268;2022-07-06T01:53:34;9.77;;;4.85;;
33403;SDS011;19751;40.274;18.268;2022-07-06T01:55:59;7.57;;;4.90;;
33403;SDS011;19751;40.274;18.268;2022-07-06T01:58:25;7.38;;;4.60;;
33403;SDS011;19751;40.274;18.268;2022-07-06T02:00:51;7.32;;;4.53;;
33403;SDS011;19751;40.274;18.268;2022-07-06T02:03:17;8.32;;;5.53;;
33403;SDS011;19751;40.274;18.268;2022-07-06T02:05:43;8.93;;;4.97;;
33403;SDS011;19751;40.274;18.268;2022-07-06T02:08:10;5.63;;;4.72;;
33403;SDS011;19751;40.274;18.268;2022-07-06T02:10:35;7.60;;;4.88;;
33403;SDS011;19751;40.274;18.268;2022-07-06T02:13:01;8.32;;;5.07;;
33403;SDS011;19751;40.274;18.268;2022-07-06T02:15:26;6.07;;;4.55;;
33403;SDS011;19751;40.274;18.268;2022-07-06T02:17:52;6.10;;;4.35;;
33403;SDS011;19751;40.274;18.268;2022-07-06T02:20:17;6.80;;;4.85;;
33403;SDS011;19751;40.274;18.268;2022-07-06T02:22:43;5.80;;;4.75;;
33403;SDS011;19751;40.274;18.268;2022-07-06T02:25:09;6.05;;;4.80;;
33403;SDS011;19751;40.274;18.268;2022-07-06T02:27:35;7.78;;;5.03;;
33403;SDS011;19751;40.274;18.268;2022-07-06T02:30:00;7.72;;;5.05;;
33403;SDS011;19751;40.274;18.268;2022-07-06T02:32:26;6.13;;;4.28;;
33403;SDS011;19751;40.274;18.268;2022-07-06T02:34:52;7.55;;;4.90;;
33403;SDS011;19751;40.274;18.268;2022-07-06T02:37:18;9.25;;;4.30;;
33403;SDS011;19751;40.274;18.268;2022-07-06T02:39:43;8.05;;;4.80;;
33403;SDS011;19751;40.274;18.268;2022-07-06T02:42:09;10.27;;;4.60;;
33403;SDS011;19751;40.274;18.268;2022-07-06T02:44:35;10.40;;;4.90;;
33403;SDS011;19751;40.274;18.268;2022-07-06T02:47:00;11.77;;;5.50;;
33403;SDS011;19751;40.274;18.268;2022-07-06T02:49:26;13.13;;;4.90;;
33403;SDS011;19751;40.274;18.268;2022-07-06T02:51:52;10.10;;;4.88;;
33403;SDS011;19751;40.274;18.268;2022-07-06T02:54:17;9.95;;;4.82;;
33403;SDS011;19751;40.274;18.268;2022-07-06T02:56:43;8.68;;;5.05;;
33403;SDS011;19751;40.274;18.268;2022-07-06T02:59:10;9.77;;;4.60;;
33403;SDS011;19751;40.274;18.268;2022-07-06T03:01:35;11.95;;;5.38;;
33403;SDS011;19751;40.274;18.268;2022-07-06T03:04:02;8.60;;;5.00;;
33403;SDS011;19751;40.274;18.268;2022-07-06T03:06:27;8.40;;;5.07;;
33403;SDS011;19751;40.274;18.268;2022-07-06T03:08:53;8.45;;;4.80;;
33403;SDS011;19751;40.274;18.268;2022-07-06T03:11:19;9.27;;;4.65;;
33403;SDS011;19751;40.274;18.268;2022-07-06T03:13:44;12.13;;;5.15;;
33403;SDS011;19751;40.274;18.268;2022-07-06T03:16:10;12.80;;;6.10;;
33403;SDS011;19751;40.274;18.268;2022-07-06T03:18:35;10.48;;;5.20;;
33403;SDS011;19751;40.274;18.268;2022-07-06T03:21:01;13.75;;;4.95;;
33403;SDS011;19751;40.274;18.268;2022-07-06T03:23:29;14.43;;;5.15;;
33403;SDS011;19751;40.274;18.268;2022-07-06T03:25:55;13.65;;;4.38;;
33403;SDS011;19751;40.274;18.268;2022-07-06T03:28:21;9.27;;;4.43;;
33403;SDS011;19751;40.274;18.268;2022-07-06T03:30:46;16.38;;;5.22;;
33403;SDS011;19751;40.274;18.268;2022-07-06T03:33:12;7.28;;;4.00;;
33403;SDS011;19751;40.274;18.268;2022-07-06T03:35:37;13.48;;;5.28;;
33403;SDS011;19751;40.274;18.268;2022-07-06T03:38:03;7.10;;;3.70;;
33403;SDS011;19751;40.274;18.268;2022-07-06T03:40:30;11.32;;;4.35;;
33403;SDS011;19751;40.274;18.268;2022-07-06T03:42:55;8.73;;;4.93;;
33403;SDS011;19751;40.274;18.268;2022-07-06T03:45:22;6.97;;;3.50;;
33403;SDS011;19751;40.274;18.268;2022-07-06T03:47:48;8.57;;;3.72;;
33403;SDS011;19751;40.274;18.268;2022-07-06T03:50:15;9.13;;;3.35;;
33403;SDS011;19751;40.274;18.268;2022-07-06T03:52:40;9.63;;;3.80;;
33403;SDS011;19751;40.274;18.268;2022-07-06T03:55:07;7.22;;;3.10;;
33403;SDS011;19751;40.274;18.268;2022-07-06T03:57:34;7.03;;;3.47;;
33403;SDS011;19751;40.274;18.268;2022-07-06T03:59:59;9.32;;;3.45;;
33403;SDS011;19751;40.274;18.268;2022-07-06T04:02:25;14.27;;;4.40;;
33403;SDS011;19751;40.274;18.268;2022-07-06T04:04:50;13.43;;;3.28;;
33403;SDS011;19751;40.274;18.268;2022-07-06T04:07:16;9.30;;;3.47;;
33403;SDS011;19751;40.274;18.268;2022-07-06T04:09:42;7.43;;;3.10;;
33403;SDS011;19751;40.274;18.268;2022-07-06T04:12:07;11.88;;;3.20;;
33403;SDS011;19751;40.274;18.268;2022-07-06T04:14:33;6.38;;;3.38;;
33403;SDS011;19751;40.274;18.268;2022-07-06T04:17:00;5.45;;;3.13;;
33403;SDS011;19751;40.274;18.268;2022-07-06T04:19:45;6.45;;;2.50;;
33403;SDS011;19751;40.274;18.268;2022-07-06T04:22:13;6.97;;;2.78;;
33403;SDS011;19751;40.274;18.268;2022-07-06T04:24:39;9.32;;;2.92;;
33403;SDS011;19751;40.274;18.268;2022-07-06T04:27:05;4.25;;;2.08;;
33403;SDS011;19751;40.274;18.268;2022-07-06T04:29:30;10.27;;;2.97;;
33403;SDS011;19751;40.274;18.268;2022-07-06T04:31:56;5.63;;;2.38;;
33403;SDS011;19751;40.274;18.268;2022-07-06T04:34:22;7.65;;;2.88;;
33403;SDS011;19751;40.274;18.268;2022-07-06T04:36:47;12.05;;;2.53;;
33403;SDS011;19751;40.274;18.268;2022-07-06T04:39:13;6.18;;;2.33;;
33403;SDS011;19751;40.274;18.268;2022-07-06T04:41:38;9.82;;;3.70;;
33403;SDS011;19751;40.274;18.268;2022-07-06T04:44:04;8.02;;;2.75;;
33403;SDS011;19751;40.274;18.268;2022-07-06T04:46:30;8.13;;;3.03;;
33403;SDS011;19751;40.274;18.268;2022-07-06T04:48:55;8.00;;;2.67;;
33403;SDS011;19751;40.274;18.268;2022-07-06T04:51:23;8.02;;;2.40;;
33403;SDS011;19751;40.274;18.268;2022-07-06T04:53:48;6.72;;;2.33;;
33403;SDS011;19751;40.274;18.268;2022-07-06T04:56:20;12.95;;;3.28;;
33403;SDS011;19751;40.274;18.268;2022-07-06T04:58:46;7.88;;;3.78;;
33403;SDS011;19751;40.274;18.268;2022-07-06T05:01:12;12.55;;;2.42;;
33403;SDS011;19751;40.274;18.268;2022-07-06T05:03:38;9.73;;;2.70;;
33403;SDS011;19751;40.274;18.268;2022-07-06T05:06:06;8.27;;;2.47;;
33403;SDS011;19751;40.274;18.268;2022-07-06T05:08:32;8.10;;;2.20;;
33403;SDS011;19751;40.274;18.268;2022-07-06T05:11:00;4.57;;;2.03;;
33403;SDS011;19751;40.274;18.268;2022-07-06T05:13:25;14.30;;;2.47;;
33403;SDS011;19751;40.274;18.268;2022-07-06T05:15:51;16.15;;;3.35;;
33403;SDS011;19751;40.274;18.268;2022-07-06T05:18:17;4.93;;;2.05;;
33403;SDS011;19751;40.274;18.268;2022-07-06T05:20:42;5.28;;;2.17;;
33403;SDS011;19751;40.274;18.268;2022-07-06T05:23:09;9.32;;;2.53;;
33403;SDS011;19751;40.274;18.268;2022-07-06T05:25:34;8.20;;;2.72;;
33403;SDS011;19751;40.274;18.268;2022-07-06T05:28:02;9.82;;;2.95;;
33403;SDS011;19751;40.274;18.268;2022-07-06T05:30:28;8.32;;;3.20;;
33403;SDS011;19751;40.274;18.268;2022-07-06T05:32:54;7.32;;;2.70;;
33403;SDS011;19751;40.274;18.268;2022-07-06T05:35:19;10.55;;;2.80;;
33403;SDS011;19751;40.274;18.268;2022-07-06T05:37:45;9.32;;;2.72;;
33403;SDS011;19751;40.274;18.268;2022-07-06T05:40:11;7.05;;;3.03;;
33403;SDS011;19751;40.274;18.268;2022-07-06T05:42:37;13.90;;;3.20;;
33403;SDS011;19751;40.274;18.268;2022-07-06T05:45:02;9.40;;;2.25;;
33403;SDS011;19751;40.274;18.268;2022-07-06T05:50:16;13.57;;;2.95;;
33403;SDS011;19751;40.274;18.268;2022-07-06T05:52:43;12.48;;;2.80;;
33403;SDS011;19751;40.274;18.268;2022-07-06T05:55:10;12.93;;;3.05;;
33403;SDS011;19751;40.274;18.268;2022-07-06T05:57:37;10.95;;;3.08;;
33403;SDS011;19751;40.274;18.268;2022-07-06T06:00:05;5.72;;;2.25;;
33403;SDS011;19751;40.274;18.268;2022-07-06T06:02:37;10.45;;;3.20;;
33403;SDS011;19751;40.274;18.268;2022-07-06T06:05:09;8.60;;;2.80;;
33403;SDS011;19751;40.274;18.268;2022-07-06T06:07:36;7.03;;;2.65;;
33403;SDS011;19751;40.274;18.268;2022-07-06T06:10:04;15.73;;;3.42;;
33403;SDS011;19751;40.274;18.268;2022-07-06T06:12:31;7.18;;;2.38;;
33403;SDS011;19751;40.274;18.268;2022-07-06T06:14:57;10.73;;;2.78;;
33403;SDS011;19751;40.274;18.268;2022-07-06T06:17:23;6.40;;;2.50;;
33403;SDS011;19751;40.274;18.268;2022-07-06T06:19:49;8.23;;;2.88;;
33403;SDS011;19751;40.274;18.268;2022-07-06T06:22:14;6.85;;;2.78;;
33403;SDS011;19751;40.274;18.268;2022-07-06T06:24:40;10.60;;;2.83;;
33403;SDS011;19751;40.274;18.268;2022-07-06T06:27:06;10.82;;;3.42;;
33403;SDS011;19751;40.274;18.268;2022-07-06T06:29:32;9.13;;;3.03;;
33403;SDS011;19751;40.274;18.268;2022-07-06T06:31:58;5.60;;;3.42;;
33403;SDS011;19751;40.274;18.268;2022-07-06T06:34:23;9.52;;;2.70;;
33403;SDS011;19751;40.274;18.268;2022-07-06T06:36:49;10.23;;;3.58;;
33403;SDS011;19751;40.274;18.268;2022-07-06T06:39:15;8.35;;;3.47;;
33403;SDS011;19751;40.274;18.268;2022-07-06T06:41:41;6.45;;;3.30;;
33403;SDS011;19751;40.274;18.268;2022-07-06T06:44:07;5.35;;;2.70;;
33403;SDS011;19751;40.274;18.268;2022-07-06T06:46:32;5.93;;;2.95;;
33403;SDS011;19751;40.274;18.268;2022-07-06T06:48:59;5.45;;;3.03;;
33403;SDS011;19751;40.274;18.268;2022-07-06T06:51:25;14.10;;;4.95;;
33403;SDS011;19751;40.274;18.268;2022-07-06T06:53:51;9.38;;;3.55;;
33403;SDS011;19751;40.274;18.268;2022-07-06T06:56:16;7.82;;;3.92;;
33403;SDS011;19751;40.274;18.268;2022-07-06T06:58:42;9.52;;;4.03;;
33403;SDS011;19751;40.274;18.268;2022-07-06T07:01:08;9.98;;;3.03;;
33403;SDS011;19751;40.274;18.268;2022-07-06T07:03:34;10.10;;;5.00;;
33403;SDS011;19751;40.274;18.268;2022-07-06T07:06:00;8.40;;;3.75;;
33403;SDS011;19751;40.274;18.268;2022-07-06T07:08:26;8.45;;;3.47;;
33403;SDS011;19751;40.274;18.268;2022-07-06T07:10:51;11.00;;;3.53;;
33403;SDS011;19751;40.274;18.268;2022-07-06T07:13:17;14.82;;;4.03;;
33403;SDS011;19751;40.274;18.268;2022-07-06T07:15:43;8.90;;;3.15;;
33403;SDS011;19751;40.274;18.268;2022-07-06T07:18:10;11.13;;;3.70;;
33403;SDS011;19751;40.274;18.268;2022-07-06T07:20:35;7.88;;;3.55;;
33403;SDS011;19751;40.274;18.268;2022-07-06T07:23:01;12.80;;;4.00;;
33403;SDS011;19751;40.274;18.268;2022-07-06T07:25:27;13.60;;;4.78;;
33403;SDS011;19751;40.274;18.268;2022-07-06T07:27:53;13.68;;;3.88;;
33403;SDS011;19751;40.274;18.268;2022-07-06T07:30:19;29.75;;;6.32;;
33403;SDS011;19751;40.274;18.268;2022-07-06T07:32:46;11.77;;;4.32;;
33403;SDS011;19751;40.274;18.268;2022-07-06T07:35:12;11.05;;;3.38;;
33403;SDS011;19751;40.274;18.268;2022-07-06T07:37:38;8.82;;;3.58;;
33403;SDS011;19751;40.274;18.268;2022-07-06T07:40:04;9.48;;;3.78;;
33403;SDS011;19751;40.274;18.268;2022-07-06T07:42:31;10.35;;;3.60;;
33403;SDS011;19751;40.274;18.268;2022-07-06T07:44:56;6.88;;;2.92;;
33403;SDS011;19751;40.274;18.268;2022-07-06T07:47:22;7.93;;;3.20;;
33403;SDS011;19751;40.274;18.268;2022-07-06T07:49:48;10.50;;;4.53;;
33403;SDS011;19751;40.274;18.268;2022-07-06T07:52:14;8.98;;;3.42;;
33403;SDS011;19751;40.274;18.268;2022-07-06T07:54:39;15.35;;;4.35;;
33403;SDS011;19751;40.274;18.268;2022-07-06T07:57:05;7.22;;;3.97;;
33403;SDS011;19751;40.274;18.268;2022-07-06T07:59:32;11.52;;;4.85;;
33403;SDS011;19751;40.274;18.268;2022-07-06T08:01:58;10.57;;;4.05;;
33403;SDS011;19751;40.274;18.268;2022-07-06T08:04:24;7.07;;;3.28;;
33403;SDS011;19751;40.274;18.268;2022-07-06T08:06:49;14.30;;;4.05;;
33403;SDS011;19751;40.274;18.268;2022-07-06T08:09:15;11.55;;;4.65;;
33403;SDS011;19751;40.274;18.268;2022-07-06T08:11:42;7.45;;;4.07;;
33403;SDS011;19751;40.274;18.268;2022-07-06T08:14:08;8.45;;;3.85;;
33403;SDS011;19751;40.274;18.268;2022-07-06T08:16:33;14.13;;;4.22;;
33403;SDS011;19751;40.274;18.268;2022-07-06T08:18:59;11.00;;;4.18;;
33403;SDS011;19751;40.274;18.268;2022-07-06T08:21:25;12.25;;;4.60;;
33403;SDS011;19751;40.274;18.268;2022-07-06T08:23:51;8.23;;;3.88;;
33403;SDS011;19751;40.274;18.268;2022-07-06T08:26:17;5.35;;;3.55;;
33403;SDS011;19751;40.274;18.268;2022-07-06T08:28:43;7.90;;;4.25;;
33403;SDS011;19751;40.274;18.268;2022-07-06T08:31:11;12.35;;;3.13;;
33403;SDS011;19751;40.274;18.268;2022-07-06T08:33:37;8.07;;;3.60;;
33403;SDS011;19751;40.274;18.268;2022-07-06T08:36:04;10.75;;;3.53;;
33403;SDS011;19751;40.274;18.268;2022-07-06T08:38:30;8.32;;;3.40;;
33403;SDS011;19751;40.274;18.268;2022-07-06T08:40:56;9.73;;;3.83;;
33403;SDS011;19751;40.274;18.268;2022-07-06T08:43:23;9.13;;;3.70;;
33403;SDS011;19751;40.274;18.268;2022-07-06T08:45:49;7.80;;;3.83;;
33403;SDS011;19751;40.274;18.268;2022-07-06T08:48:18;8.27;;;3.22;;
33403;SDS011;19751;40.274;18.268;2022-07-06T08:50:48;6.70;;;3.47;;
33403;SDS011;19751;40.274;18.268;2022-07-06T08:53:15;4.72;;;3.40;;
33403;SDS011;19751;40.274;18.268;2022-07-06T08:55:42;10.07;;;3.08;;
33403;SDS011;19751;40.274;18.268;2022-07-06T08:58:08;6.57;;;3.38;;
33403;SDS011;19751;40.274;18.268;2022-07-06T09:00:34;8.55;;;3.45;;
33403;SDS011;19751;40.274;18.268;2022-07-06T09:03:01;10.60;;;3.97;;
33403;SDS011;19751;40.274;18.268;2022-07-06T09:05:26;7.90;;;3.53;;
33403;SDS011;19751;40.274;18.268;2022-07-06T09:07:53;8.15;;;3.85;;
33403;SDS011;19751;40.274;18.268;2022-07-06T09:12:51;11.82;;;3.45;;
33403;SDS011;19751;40.274;18.268;2022-07-06T09:15:17;9.13;;;3.70;;
33403;SDS011;19751;40.274;18.268;2022-07-06T09:17:43;11.70;;;3.33;;
33403;SDS011;19751;40.274;18.268;2022-07-06T09:20:09;9.05;;;3.03;;
33403;SDS011;19751;40.274;18.268;2022-07-06T09:22:36;6.82;;;3.38;;
33403;SDS011;19751;40.274;18.268;2022-07-06T09:25:15;5.63;;;2.88;;
33403;SDS011;19751;40.274;18.268;2022-07-06T09:27:42;8.13;;;3.30;;
33403;SDS011;19751;40.274;18.268;2022-07-06T09:30:12;10.38;;;3.20;;
33403;SDS011;19751;40.274;18.268;2022-07-06T09:32:45;7.93;;;3.50;;
33403;SDS011;19751;40.274;18.268;2022-07-06T09:38:01;9.00;;;3.58;;
33403;SDS011;19751;40.274;18.268;2022-07-06T09:40:29;11.52;;;3.70;;
33403;SDS011;19751;40.274;18.268;2022-07-06T09:43:19;6.50;;;3.42;;
33403;SDS011;19751;40.274;18.268;2022-07-06T09:45:45;9.55;;;3.08;;
33403;SDS011;19751;40.274;18.268;2022-07-06T09:48:14;11.57;;;4.40;;
33403;SDS011;19751;40.274;18.268;2022-07-06T09:50:47;6.82;;;3.42;;
33403;SDS011;19751;40.274;18.268;2022-07-06T09:53:14;5.88;;;3.05;;
33403;SDS011;19751;40.274;18.268;2022-07-06T09:55:44;6.47;;;3.00;;
33403;SDS011;19751;40.274;18.268;2022-07-06T09:58:11;7.53;;;2.75;;
33403;SDS011;19751;40.274;18.268;2022-07-06T10:00:36;7.63;;;3.72;;
33403;SDS011;19751;40.274;18.268;2022-07-06T10:03:03;7.53;;;3.88;;
33403;SDS011;19751;40.274;18.268;2022-07-06T10:05:30;5.20;;;3.30;;
33403;SDS011;19751;40.274;18.268;2022-07-06T10:08:00;5.57;;;3.30;;
33403;SDS011;19751;40.274;18.268;2022-07-06T10:10:27;9.02;;;3.42;;
33403;SDS011;19751;40.274;18.268;2022-07-06T10:12:55;8.30;;;3.95;;
33403;SDS011;19751;40.274;18.268;2022-07-06T10:15:22;6.32;;;3.97;;
33403;SDS011;19751;40.274;18.268;2022-07-06T10:17:51;5.65;;;2.85;;
33403;SDS011;19751;40.274;18.268;2022-07-06T10:20:21;6.88;;;3.42;;
33403;SDS011;19751;40.274;18.268;2022-07-06T10:22:48;8.02;;;3.47;;
33403;SDS011;19751;40.274;18.268;2022-07-06T10:25:18;6.72;;;3.33;;
33403;SDS011;19751;40.274;18.268;2022-07-06T10:27:47;7.15;;;3.17;;
33403;SDS011;19751;40.274;18.268;2022-07-06T10:30:16;7.18;;;3.47;;
33403;SDS011;19751;40.274;18.268;2022-07-06T10:32:42;7.00;;;3.63;;
33403;SDS011;19751;40.274;18.268;2022-07-06T10:35:09;7.75;;;3.15;;
33403;SDS011;19751;40.274;18.268;2022-07-06T10:37:35;6.95;;;4.00;;
33403;SDS011;19751;40.274;18.268;2022-07-06T10:40:03;9.13;;;3.63;;
33403;SDS011;19751;40.274;18.268;2022-07-06T10:42:49;12.65;;;3.60;;
33403;SDS011;19751;40.274;18.268;2022-07-06T10:45:49;10.40;;;3.67;;
33403;SDS011;19751;40.274;18.268;2022-07-06T10:53:27;4.20;;;2.92;;
33403;SDS011;19751;40.274;18.268;2022-07-06T10:55:56;5.68;;;3.05;;
33403;SDS011;19751;40.274;18.268;2022-07-06T10:58:37;5.93;;;3.42;;
33403;SDS011;19751;40.274;18.268;2022-07-06T11:01:08;4.88;;;3.47;;
33403;SDS011;19751;40.274;18.268;2022-07-06T11:03:37;6.03;;;2.63;;
33403;SDS011;19751;40.274;18.268;2022-07-06T11:08:54;6.65;;;2.97;;
33403;SDS011;19751;40.274;18.268;2022-07-06T11:11:25;7.60;;;3.15;;
33403;SDS011;19751;40.274;18.268;2022-07-06T11:16:27;6.25;;;2.95;;
33403;SDS011;19751;40.274;18.268;2022-07-06T11:19:11;7.05;;;3.30;;
33403;SDS011;19751;40.274;18.268;2022-07-06T11:24:20;5.38;;;2.75;;
33403;SDS011;19751;40.274;18.268;2022-07-06T11:26:48;6.50;;;2.75;;
33403;SDS011;19751;40.274;18.268;2022-07-06T11:29:17;5.38;;;2.22;;
33403;SDS011;19751;40.274;18.268;2022-07-06T11:31:46;7.68;;;2.80;;
33403;SDS011;19751;40.274;18.268;2022-07-06T11:34:13;8.70;;;3.60;;
33403;SDS011;19751;40.274;18.268;2022-07-06T11:36:44;4.78;;;2.22;;
33403;SDS011;19751;40.274;18.268;2022-07-06T11:39:09;9.27;;;2.85;;
33403;SDS011;19751;40.274;18.268;2022-07-06T11:41:35;10.02;;;2.97;;
33403;SDS011;19751;40.274;18.268;2022-07-06T11:44:02;8.18;;;2.92;;
33403;SDS011;19751;40.274;18.268;2022-07-06T11:46:34;10.70;;;3.58;;
33403;SDS011;19751;40.274;18.268;2022-07-06T11:49:01;6.80;;;2.55;;
33403;SDS011;19751;40.274;18.268;2022-07-06T11:51:31;3.72;;;2.20;;
33403;SDS011;19751;40.274;18.268;2022-07-06T11:54:00;9.20;;;2.90;;
33403;SDS011;19751;40.274;18.268;2022-07-06T11:56:32;3.55;;;2.50;;
33403;SDS011;19751;40.274;18.268;2022-07-06T11:58:59;6.65;;;2.30;;
33403;SDS011;19751;40.274;18.268;2022-07-06T12:01:26;5.43;;;2.38;;
33403;SDS011;19751;40.274;18.268;2022-07-06T12:03:56;7.75;;;2.22;;
33403;SDS011;19751;40.274;18.268;2022-07-06T12:06:24;5.28;;;2.17;;
33403;SDS011;19751;40.274;18.268;2022-07-06T12:08:51;8.18;;;3.95;;
33403;SDS011;19751;40.274;18.268;2022-07-06T12:11:20;4.40;;;2.67;;
33403;SDS011;19751;40.274;18.268;2022-07-06T12:13:46;5.60;;;2.70;;
33403;SDS011;19751;40.274;18.268;2022-07-06T12:16:12;7.38;;;2.83;;
33403;SDS011;19751;40.274;18.268;2022-07-06T12:18:42;10.70;;;2.83;;
33403;SDS011;19751;40.274;18.268;2022-07-06T12:21:13;8.60;;;2.67;;
33403;SDS011;19751;40.274;18.268;2022-07-06T12:23:44;6.68;;;2.83;;
33403;SDS011;19751;40.274;18.268;2022-07-06T12:26:15;3.95;;;2.10;;
33403;SDS011;19751;40.274;18.268;2022-07-06T12:28:43;6.10;;;3.67;;
33403;SDS011;19751;40.274;18.268;2022-07-06T12:31:09;4.43;;;2.78;;
33403;SDS011;19751;40.274;18.268;2022-07-06T12:33:36;6.63;;;2.67;;
33403;SDS011;19751;40.274;18.268;2022-07-06T12:36:09;8.05;;;2.85;;
33403;SDS011;19751;40.274;18.268;2022-07-06T12:38:45;8.02;;;2.67;;
33403;SDS011;19751;40.274;18.268;2022-07-06T12:41:28;8.68;;;2.58;;
33403;SDS011;19751;40.274;18.268;2022-07-06T12:44:02;7.47;;;2.45;;
33403;SDS011;19751;40.274;18.268;2022-07-06T12:46:33;3.20;;;2.03;;
33403;SDS011;19751;40.274;18.268;2022-07-06T12:49:10;3.45;;;1.95;;
33403;SDS011;19751;40.274;18.268;2022-07-06T12:54:17;7.03;;;2.50;;
33403;SDS011;19751;40.274;18.268;2022-07-06T12:56:59;5.22;;;2.28;;
33403;SDS011;19751;40.274;18.268;2022-07-06T12:59:38;4.45;;;2.00;;
33403;SDS011;19751;40.274;18.268;2022-07-06T13:02:07;5.18;;;2.30;;
33403;SDS011;19751;40.274;18.268;2022-07-06T13:04:35;7.72;;;2.38;;
33403;SDS011;19751;40.274;18.268;2022-07-06T13:07:02;8.15;;;2.28;;
33403;SDS011;19751;40.274;18.268;2022-07-06T13:09:28;6.70;;;2.15;;
33403;SDS011;19751;40.274;18.268;2022-07-06T13:11:54;4.68;;;2.05;;
33403;SDS011;19751;40.274;18.268;2022-07-06T13:14:20;3.83;;;1.83;;
33403;SDS011;19751;40.274;18.268;2022-07-06T13:16:48;9.43;;;2.58;;
33403;SDS011;19751;40.274;18.268;2022-07-06T13:19:14;4.38;;;1.70;;
33403;SDS011;19751;40.274;18.268;2022-07-06T13:21:41;4.00;;;1.98;;
33403;SDS011;19751;40.274;18.268;2022-07-06T13:24:07;4.55;;;2.08;;
33403;SDS011;19751;40.274;18.268;2022-07-06T13:26:33;3.75;;;1.60;;
33403;SDS011;19751;40.274;18.268;2022-07-06T13:29:02;3.45;;;2.13;;
33403;SDS011;19751;40.274;18.268;2022-07-06T13:31:29;5.38;;;1.75;;
33403;SDS011;19751;40.274;18.268;2022-07-06T13:33:55;4.68;;;1.75;;
33403;SDS011;19751;40.274;18.268;2022-07-06T13:36:25;6.63;;;1.98;;
33403;SDS011;19751;40.274;18.268;2022-07-06T13:38:50;4.38;;;1.42;;
33403;SDS011;19751;40.274;18.268;2022-07-06T13:41:16;4.60;;;1.70;;
33403;SDS011;19751;40.274;18.268;2022-07-06T13:43:42;7.30;;;1.83;;
33403;SDS011;19751;40.274;18.268;2022-07-06T13:46:07;6.15;;;1.83;;
33403;SDS011;19751;40.274;18.268;2022-07-06T13:48:33;5.82;;;2.28;;
33403;SDS011;19751;40.274;18.268;2022-07-06T13:50:59;9.63;;;2.00;;
33403;SDS011;19751;40.274;18.268;2022-07-06T13:53:25;4.78;;;1.98;;
33403;SDS011;19751;40.274;18.268;2022-07-06T13:55:51;5.80;;;1.60;;
33403;SDS011;19751;40.274;18.268;2022-07-06T13:58:17;7.28;;;1.92;;
33403;SDS011;19751;40.274;18.268;2022-07-06T14:00:43;5.13;;;2.30;;
33403;SDS011;19751;40.274;18.268;2022-07-06T14:03:09;4.18;;;1.60;;
33403;SDS011;19751;40.274;18.268;2022-07-06T14:05:35;3.90;;;1.60;;
33403;SDS011;19751;40.274;18.268;2022-07-06T14:08:01;3.75;;;1.50;;
33403;SDS011;19751;40.274;18.268;2022-07-06T14:10:27;7.25;;;2.33;;
33403;SDS011;19751;40.274;18.268;2022-07-06T14:12:53;5.88;;;1.40;;
33403;SDS011;19751;40.274;18.268;2022-07-06T14:15:19;6.95;;;1.98;;
33403;SDS011;19751;40.274;18.268;2022-07-06T14:17:45;4.00;;;2.08;;
33403;SDS011;19751;40.274;18.268;2022-07-06T14:20:12;5.47;;;1.55;;
33403;SDS011;19751;40.274;18.268;2022-07-06T14:22:39;5.13;;;1.80;;
33403;SDS011;19751;40.274;18.268;2022-07-06T14:25:05;5.63;;;1.50;;
33403;SDS011;19751;40.274;18.268;2022-07-06T14:27:32;6.53;;;1.63;;
33403;SDS011;19751;40.274;18.268;2022-07-06T14:29:58;4.78;;;1.48;;
33403;SDS011;19751;40.274;18.268;2022-07-06T14:32:24;6.07;;;2.22;;
33403;SDS011;19751;40.274;18.268;2022-07-06T14:34:49;6.40;;;1.58;;
33403;SDS011;19751;40.274;18.268;2022-07-06T14:37:16;4.57;;;1.88;;
33403;SDS011;19751;40.274;18.268;2022-07-06T14:39:42;4.70;;;1.70;;
33403;SDS011;19751;40.274;18.268;2022-07-06T14:42:08;3.60;;;1.65;;
33403;SDS011;19751;40.274;18.268;2022-07-06T14:44:34;3.25;;;1.77;;
33403;SDS011;19751;40.274;18.268;2022-07-06T14:47:00;5.90;;;2.42;;
33403;SDS011;19751;40.274;18.268;2022-07-06T14:49:25;5.40;;;1.67;;
33403;SDS011;19751;40.274;18.268;2022-07-06T14:51:51;4.22;;;1.50;;
33403;SDS011;19751;40.274;18.268;2022-07-06T14:54:17;6.75;;;1.70;;
33403;SDS011;19751;40.274;18.268;2022-07-06T14:56:43;3.97;;;1.70;;
33403;SDS011;19751;40.274;18.268;2022-07-06T14:59:08;5.13;;;2.03;;